createdAt,value
2022-12-27T00:02:25.382Z,3.65
2022-12-27T00:04:53.082Z,3.65
2022-12-27T00:07:20.196Z,3.66
2022-12-27T00:09:47.434Z,3.68
2022-12-27T00:12:14.407Z,3.71
2022-12-27T00:14:41.557Z,3.71
2022-12-27T00:17:08.948Z,3.70
2022-12-27T00:19:36.376Z,3.67
2022-12-27T00:22:15.645Z,3.67
2022-12-27T00:24:42.617Z,3.73
2022-12-27T00:27:09.683Z,3.66
2022-12-27T00:29:36.689Z,3.55
2022-12-27T00:32:03.811Z,3.38
2022-12-27T00:34:30.933Z,3.36
2022-12-27T00:36:57.919Z,3.36
2022-12-27T00:39:25.043Z,3.42
2022-12-27T00:41:52.072Z,3.44
2022-12-27T00:44:19.114Z,3.44
2022-12-27T00:46:46.128Z,3.42
2022-12-27T00:49:13.143Z,3.46
2022-12-27T00:51:40.194Z,3.41
2022-12-27T00:54:07.802Z,3.37
2022-12-27T00:56:34.953Z,3.38
2022-12-27T00:59:03.927Z,3.34
2022-12-27T01:01:33.914Z,3.31
2022-12-27T01:04:01.709Z,3.21
2022-12-27T01:06:32.446Z,3.04
2022-12-27T01:09:00.846Z,2.87
2022-12-27T01:11:28.691Z,2.73
2022-12-27T01:14:00.720Z,2.68
2022-12-27T01:16:29.670Z,2.69
2022-12-27T01:18:57.678Z,2.69
2022-12-27T01:21:25.633Z,2.69
2022-12-27T01:23:52.695Z,2.72
2022-12-27T01:26:21.847Z,2.69
2022-12-27T01:28:50.241Z,2.69
2022-12-27T01:31:20.456Z,2.66
2022-12-27T01:33:47.949Z,2.61
2022-12-27T01:36:20.530Z,2.59
2022-12-27T01:38:48.954Z,2.61
2022-12-27T01:41:38.384Z,2.65
2022-12-27T01:44:53.577Z,2.64
2022-12-27T01:48:15.965Z,2.65
2022-12-27T01:50:51.775Z,2.65
2022-12-27T01:53:31.101Z,2.64
2022-12-27T01:56:09.933Z,2.68
2022-12-27T01:58:44.533Z,2.71
2022-12-27T02:01:21.578Z,2.68
2022-12-27T02:03:53.892Z,2.64
2022-12-27T02:06:22.732Z,2.68
2022-12-27T02:09:00.214Z,2.68
2022-12-27T02:11:49.537Z,2.70
2022-12-27T02:14:23.482Z,2.69
2022-12-27T02:16:55.565Z,2.73
2022-12-27T02:20:02.036Z,2.78
2022-12-27T02:23:51.167Z,2.83
2022-12-27T02:27:06.692Z,2.82
2022-12-27T02:29:53.855Z,2.81
2022-12-27T02:32:56.266Z,2.80
2022-12-27T02:35:32.106Z,2.80
2022-12-27T02:38:41.028Z,2.78
2022-12-27T02:41:29.856Z,2.72
2022-12-27T02:44:16.498Z,2.70
2022-12-27T02:47:03.272Z,2.65
2022-12-27T02:50:02.305Z,2.65
2022-12-27T02:53:04.045Z,2.71
2022-12-27T02:56:15.526Z,2.69
2022-12-27T02:59:14.636Z,2.72
2022-12-27T03:02:29.633Z,2.73
2022-12-27T03:05:43.969Z,2.79
2022-12-27T03:08:27.312Z,2.81
2022-12-27T03:11:19.093Z,2.79
2022-12-27T03:14:27.194Z,2.76
2022-12-27T03:17:02.088Z,2.79
2022-12-27T03:20:06.356Z,2.82
2022-12-27T03:22:53.065Z,2.84
2022-12-27T03:25:28.888Z,2.83
2022-12-27T03:28:23.585Z,2.81
2022-12-27T03:31:16.991Z,2.82
2022-12-27T03:33:47.817Z,2.86
2022-12-27T03:36:39.148Z,2.92
2022-12-27T03:39:16.361Z,2.96
2022-12-27T03:42:09.677Z,2.94
2022-12-27T03:44:36.824Z,2.90
2022-12-27T03:47:39.419Z,2.87
2022-12-27T03:50:31.819Z,2.86
2022-12-27T03:53:09.858Z,2.91
2022-12-27T03:55:38.137Z,2.97
2022-12-27T03:58:05.715Z,2.95
2022-12-27T04:00:32.868Z,2.96
2022-12-27T04:02:59.983Z,3.03
2022-12-27T04:05:27.219Z,3.04
2022-12-27T04:08:13.008Z,3.01
2022-12-27T04:10:58.328Z,3.03
2022-12-27T04:13:44.314Z,3.03
2022-12-27T04:16:30.208Z,3.02
2022-12-27T04:19:15.724Z,2.99
2022-12-27T04:22:01.260Z,2.94
2022-12-27T04:24:46.572Z,2.91
2022-12-27T04:27:32.202Z,2.88
2022-12-27T04:30:17.765Z,2.85
2022-12-27T04:33:03.308Z,2.89
2022-12-27T04:35:30.390Z,2.90
2022-12-27T04:37:57.420Z,2.92
2022-12-27T04:40:43.149Z,2.94
2022-12-27T04:43:29.035Z,3.00
2022-12-27T04:46:15.050Z,3.01
2022-12-27T04:49:00.653Z,2.99
2022-12-27T04:51:46.331Z,2.98
2022-12-27T04:54:40.918Z,2.91
2022-12-27T04:57:07.976Z,2.74
2022-12-27T04:59:53.578Z,2.62
2022-12-27T05:02:21.444Z,2.52
2022-12-27T05:04:49.048Z,2.42
2022-12-27T05:07:34.737Z,2.36
2022-12-27T05:10:23.607Z,2.39
2022-12-27T05:13:09.248Z,2.41
2022-12-27T05:15:36.314Z,2.29
2022-12-27T05:18:03.446Z,2.20
2022-12-27T05:20:30.486Z,2.17
2022-12-27T05:23:16.349Z,2.18
2022-12-27T05:25:44.947Z,2.24
2022-12-27T05:28:13.422Z,2.29
2022-12-27T05:30:42.616Z,2.29
2022-12-27T05:33:10.042Z,2.22
2022-12-27T05:35:37.833Z,2.19
2022-12-27T05:38:05.513Z,2.23
2022-12-27T05:40:32.662Z,2.32
2022-12-27T05:43:00.860Z,2.39
2022-12-27T05:45:29.069Z,2.50
2022-12-27T05:47:56.095Z,2.90
2022-12-27T05:50:23.312Z,2.81
2022-12-27T05:52:51.019Z,2.56
2022-12-27T05:55:18.194Z,2.42
2022-12-27T05:57:45.145Z,2.18
2022-12-27T06:00:12.973Z,1.94
2022-12-27T06:02:42.634Z,1.73
2022-12-27T06:05:11.002Z,1.61
2022-12-27T06:07:39.162Z,1.56
2022-12-27T06:10:08.024Z,1.50
2022-12-27T06:12:35.604Z,1.45
2022-12-27T06:15:02.883Z,1.45
2022-12-27T06:17:30.044Z,1.44
2022-12-27T06:19:57.551Z,1.46
2022-12-27T06:22:25.378Z,1.50
2022-12-27T06:24:52.401Z,1.49
2022-12-27T06:27:19.398Z,1.52
2022-12-27T06:29:46.425Z,1.62
2022-12-27T06:32:13.591Z,1.74
2022-12-27T06:34:40.758Z,1.84
2022-12-27T06:37:07.723Z,1.92
2022-12-27T06:39:34.709Z,2.01
2022-12-27T06:42:01.726Z,2.09
2022-12-27T06:44:28.848Z,2.18
2022-12-27T06:46:55.860Z,2.32
2022-12-27T06:49:22.945Z,2.46
2022-12-27T06:51:55.735Z,2.60
2022-12-27T06:54:26.476Z,2.69
2022-12-27T06:56:53.447Z,2.79
2022-12-27T06:59:20.499Z,2.90
2022-12-27T07:01:47.619Z,3.08
2022-12-27T07:04:14.868Z,3.25
2022-12-27T07:06:41.925Z,3.39
2022-12-27T07:09:08.991Z,3.54
2022-12-27T07:11:37.523Z,3.70
2022-12-27T07:14:04.924Z,3.89
2022-12-27T07:16:32.198Z,4.06
2022-12-27T07:18:59.998Z,4.25
2022-12-27T07:21:28.988Z,4.41
2022-12-27T07:23:56.758Z,4.54
2022-12-27T07:26:28.006Z,4.65
2022-12-27T07:28:55.822Z,4.70
2022-12-27T07:31:26.488Z,4.79
2022-12-27T07:33:53.697Z,4.80
2022-12-27T07:36:24.377Z,4.79
2022-12-27T07:38:51.870Z,4.84
2022-12-27T07:41:19.283Z,4.84
2022-12-27T07:43:46.925Z,4.74
2022-12-27T07:46:17.283Z,4.73
2022-12-27T07:48:45.395Z,4.75
2022-12-27T07:51:12.732Z,4.81
2022-12-27T07:53:40.363Z,4.82
2022-12-27T07:56:13.104Z,4.86
2022-12-27T07:58:42.733Z,4.93
2022-12-27T08:01:11.154Z,4.95
2022-12-27T08:03:38.832Z,5.00
2022-12-27T08:06:06.924Z,5.00
2022-12-27T08:08:43.284Z,5.01
2022-12-27T08:11:10.445Z,5.03
2022-12-27T08:13:37.957Z,5.06
2022-12-27T08:16:05.809Z,5.09
2022-12-27T08:18:33.905Z,5.10
2022-12-27T08:21:01.086Z,5.10
2022-12-27T08:23:28.073Z,5.17
2022-12-27T08:25:55.049Z,5.29
2022-12-27T08:28:21.998Z,5.40
2022-12-27T08:30:49.094Z,5.52
2022-12-27T08:33:16.313Z,5.59
2022-12-27T08:35:53.970Z,5.63
2022-12-27T08:38:21.521Z,5.64
2022-12-27T08:40:48.651Z,5.71
2022-12-27T08:43:15.693Z,5.77
2022-12-27T08:45:42.804Z,5.88
2022-12-27T08:48:09.932Z,6.01
2022-12-27T08:50:37.158Z,6.15
2022-12-27T08:53:06.274Z,6.24
2022-12-27T08:55:33.779Z,6.32
2022-12-27T08:58:10.525Z,6.40
2022-12-27T09:00:42.669Z,6.48
2022-12-27T09:03:10.175Z,6.63
2022-12-27T09:05:41.679Z,6.79
2022-12-27T09:08:09.017Z,6.90
2022-12-27T09:10:36.085Z,7.00
2022-12-27T09:13:03.492Z,7.06
2022-12-27T09:15:30.662Z,7.17
2022-12-27T09:17:57.726Z,7.33
2022-12-27T09:20:24.877Z,7.47
2022-12-27T09:22:52.485Z,7.57
2022-12-27T09:25:19.699Z,7.65
2022-12-27T09:27:46.687Z,7.72
2022-12-27T09:30:13.963Z,7.80
2022-12-27T09:32:41.129Z,7.91
2022-12-27T09:35:08.644Z,8.03
2022-12-27T09:37:35.571Z,8.17
2022-12-27T09:40:02.564Z,8.37
2022-12-27T09:43:16.309Z,8.55
2022-12-27T09:45:50.448Z,8.67
2022-12-27T09:48:33.406Z,8.80
2022-12-27T09:51:25.700Z,9.02
2022-12-27T09:54:40.698Z,8.99
2022-12-27T09:57:20.236Z,8.98
2022-12-27T09:59:52.259Z,8.93
2022-12-27T10:02:23.388Z,8.90
2022-12-27T10:05:19.269Z,8.86
2022-12-27T10:08:03.593Z,9.01
2022-12-27T10:10:50.925Z,9.19
2022-12-27T10:13:58.754Z,9.43
2022-12-27T10:16:48.231Z,9.67
2022-12-27T10:19:57.246Z,9.79
2022-12-27T10:22:39.070Z,9.92
2022-12-27T10:25:12.551Z,10.07
2022-12-27T10:27:40.359Z,10.19
2022-12-27T10:30:14.977Z,10.35
2022-12-27T10:32:42.853Z,10.43
2022-12-27T10:35:14.840Z,10.35
2022-12-27T10:37:41.942Z,10.31
2022-12-27T10:40:19.942Z,10.38
2022-12-27T10:43:12.435Z,10.43
2022-12-27T10:45:42.494Z,10.45
2022-12-27T10:48:21.820Z,10.55
2022-12-27T10:50:58.493Z,10.76
2022-12-27T10:53:38.363Z,10.93
2022-12-27T10:56:14.751Z,11.15
2022-12-27T10:58:56.494Z,11.29
2022-12-27T11:01:29.225Z,11.59
2022-12-27T11:04:21.515Z,11.66
2022-12-27T11:07:13.046Z,11.83
2022-12-27T11:09:50.738Z,12.05
2022-12-27T11:12:29.052Z,12.27
2022-12-27T11:15:19.058Z,12.49
2022-12-27T11:17:58.479Z,12.71
2022-12-27T11:20:50.791Z,12.94
2022-12-27T11:23:21.334Z,13.19
2022-12-27T11:26:00.198Z,13.45
2022-12-27T11:28:44.287Z,13.68
2022-12-27T11:31:17.355Z,13.91
2022-12-27T11:33:53.555Z,14.15
2022-12-27T11:36:25.710Z,14.32
2022-12-27T11:38:52.717Z,14.26
2022-12-27T11:41:47.262Z,14.05
2022-12-27T11:44:24.359Z,13.81
2022-12-27T11:47:03.950Z,13.59
2022-12-27T11:49:53.941Z,13.42
2022-12-27T11:52:40.043Z,13.14
2022-12-27T11:56:00.667Z,12.91
2022-12-27T11:59:18.616Z,12.75
2022-12-27T12:02:37.433Z,12.55
2022-12-27T12:05:49.132Z,12.60
2022-12-27T12:08:54.326Z,12.59
2022-12-27T12:43:48.191Z,12.60
2022-12-27T12:46:41.676Z,12.67
2022-12-27T12:49:29.698Z,12.69
2022-12-27T12:52:25.671Z,12.71
2022-12-27T12:55:25.801Z,12.75
2022-12-27T12:58:36.266Z,12.89
2022-12-27T13:01:52.937Z,13.06
2022-12-27T13:05:04.911Z,13.07
2022-12-27T13:08:39.588Z,13.06
2022-12-27T13:33:27.156Z,12.46
2022-12-27T13:36:12.816Z,12.48
2022-12-27T13:39:28.922Z,12.45
2022-12-27T13:42:29.629Z,12.31
2022-12-27T13:45:39.159Z,12.23
2022-12-27T13:48:53.878Z,12.18
2022-12-27T13:51:50.146Z,12.15
2022-12-27T13:55:19.166Z,12.11
2022-12-27T13:58:24.150Z,12.02
2022-12-27T14:01:42.541Z,11.99
2022-12-27T14:22:22.847Z,11.72
2022-12-27T14:25:13.989Z,11.58
2022-12-27T14:31:33.301Z,11.04
2022-12-27T15:23:55.913Z,10.03
2022-12-27T15:26:55.501Z,9.92
2022-12-27T15:30:11.509Z,9.97
2022-12-27T15:36:03.901Z,9.74
2022-12-27T15:38:54.369Z,9.65
2022-12-27T15:41:25.815Z,9.51
2022-12-27T15:44:23.101Z,9.48
2022-12-27T15:53:39.654Z,9.64
2022-12-27T15:59:42.699Z,9.46
2022-12-27T16:02:29.092Z,9.34
2022-12-27T16:08:27.756Z,9.50
2022-12-27T16:10:56.064Z,9.66
2022-12-27T16:13:46.627Z,9.62
2022-12-27T16:16:53.820Z,9.48
2022-12-27T16:19:49.483Z,9.33
2022-12-27T16:22:53.448Z,9.25
2022-12-27T16:25:39.004Z,9.21
2022-12-27T16:28:26.703Z,9.22
2022-12-27T16:31:04.213Z,9.33
2022-12-27T16:33:38.130Z,9.37
2022-12-27T16:36:29.311Z,9.32
2022-12-27T16:39:46.576Z,9.34
2022-12-27T16:42:14.250Z,9.26
2022-12-27T16:44:54.035Z,9.02
2022-12-27T16:47:56.149Z,8.84
2022-12-27T16:50:54.242Z,9.07
2022-12-27T16:53:58.367Z,8.96
2022-12-27T16:56:37.071Z,9.04
2022-12-27T16:59:24.189Z,9.15
2022-12-27T17:02:00.347Z,8.98
2022-12-27T17:04:53.881Z,8.89
2022-12-27T17:08:02.877Z,8.96
2022-12-27T17:10:43.056Z,9.04
2022-12-27T17:14:02.701Z,9.10
2022-12-27T17:16:41.784Z,9.01
2022-12-27T17:19:19.364Z,8.87
2022-12-27T17:21:48.521Z,8.56
2022-12-27T17:24:22.069Z,8.52
2022-12-27T17:27:44.322Z,8.52
2022-12-27T17:30:30.143Z,8.48
2022-12-27T17:33:17.421Z,8.87
2022-12-27T17:36:14.755Z,8.74
2022-12-27T17:39:10.937Z,8.72
2022-12-27T17:42:12.885Z,8.62
2022-12-27T17:45:06.925Z,8.65
2022-12-27T17:47:51.075Z,8.72
2022-12-27T17:50:21.621Z,8.77
2022-12-27T17:53:35.280Z,8.63
2022-12-27T17:56:36.762Z,8.35
2022-12-27T17:59:23.581Z,8.35
2022-12-27T18:01:54.277Z,7.98
2022-12-27T18:04:49.195Z,7.76
2022-12-27T18:07:24.317Z,7.67
2022-12-27T18:09:55.936Z,7.69
2022-12-27T18:12:26.023Z,7.86
2022-12-27T18:15:05.368Z,7.81
2022-12-27T18:18:00.634Z,7.99
2022-12-27T18:20:35.467Z,8.14
2022-12-27T18:23:16.349Z,7.97
2022-12-27T18:25:52.655Z,8.02
2022-12-27T18:28:33.724Z,8.33
2022-12-27T18:31:44.902Z,8.26
2022-12-27T18:34:37.625Z,8.22
2022-12-27T18:37:11.623Z,8.11
2022-12-27T18:39:49.800Z,7.98
2022-12-27T18:42:32.993Z,7.94
2022-12-27T18:45:18.926Z,7.78
2022-12-27T18:47:48.796Z,7.53
2022-12-27T18:50:22.193Z,7.39
2022-12-27T18:52:59.463Z,7.23
2022-12-27T18:55:27.018Z,7.11
2022-12-27T18:58:19.895Z,7.05
2022-12-27T19:01:34.746Z,7.03
2022-12-27T19:04:37.437Z,7.05
2022-12-27T19:07:11.851Z,7.18
2022-12-27T19:09:49.255Z,7.23
2022-12-27T19:12:31.398Z,7.23
2022-12-27T19:14:58.670Z,7.41
2022-12-27T19:17:30.865Z,7.64
2022-12-27T19:20:04.503Z,7.59
2022-12-27T19:22:53.508Z,7.60
2022-12-27T19:25:58.276Z,7.37
2022-12-27T19:28:29.053Z,7.20
2022-12-27T19:31:22.219Z,7.23
2022-12-27T19:34:00.281Z,7.26
2022-12-27T19:36:37.504Z,7.32
2022-12-27T19:39:10.959Z,7.16
2022-12-27T19:41:39.299Z,7.07
2022-12-27T19:44:06.604Z,6.96
2022-12-27T19:46:33.771Z,6.92
2022-12-27T19:49:40.154Z,6.96
2022-12-27T19:51:47.976Z,6.86
2022-12-27T19:54:18.331Z,6.95
2022-12-27T19:56:46.039Z,6.96
2022-12-27T19:59:18.627Z,6.95
2022-12-27T20:01:46.172Z,6.90
2022-12-27T20:04:15.853Z,6.61
2022-12-27T20:06:45.452Z,6.52
2022-12-27T20:09:17.880Z,6.56
2022-12-27T20:11:45.204Z,6.52
2022-12-27T20:14:13.439Z,6.50
2022-12-27T20:16:41.100Z,6.48
2022-12-27T20:19:10.422Z,6.48
2022-12-27T20:21:39.939Z,6.48
2022-12-27T20:24:07.663Z,6.55
2022-12-27T20:26:34.814Z,6.55
2022-12-27T20:29:01.926Z,6.59
2022-12-27T20:31:29.007Z,6.75
2022-12-27T20:33:56.633Z,6.78
2022-12-27T20:36:24.391Z,6.82
2022-12-27T20:38:51.495Z,6.89
2022-12-27T20:41:20.623Z,6.99
2022-12-27T20:43:48.094Z,7.13
2022-12-27T20:46:17.292Z,7.22
2022-12-27T20:48:46.291Z,7.19
2022-12-27T20:51:16.057Z,7.15
2022-12-27T20:53:43.735Z,7.08
2022-12-27T20:56:11.299Z,6.94
2022-12-27T20:58:38.380Z,6.79
2022-12-27T21:01:11.223Z,6.87
2022-12-27T21:03:39.260Z,6.77
2022-12-27T21:06:15.921Z,6.75
2022-12-27T21:08:49.072Z,6.42
2022-12-27T21:11:27.503Z,6.31
2022-12-27T21:13:55.509Z,6.49
2022-12-27T21:16:25.469Z,6.49
2022-12-27T21:18:52.824Z,6.47
2022-12-27T21:21:24.644Z,6.56
2022-12-27T21:23:53.982Z,6.65
2022-12-27T21:26:23.727Z,6.66
2022-12-27T21:28:51.391Z,6.64
2022-12-27T21:31:19.234Z,6.58
2022-12-27T21:33:46.582Z,6.56
2022-12-27T21:36:22.437Z,6.50
2022-12-27T21:38:49.648Z,6.60
2022-12-27T21:41:21.719Z,6.56
2022-12-27T21:43:49.600Z,6.48
2022-12-27T21:46:40.988Z,6.78
2022-12-27T21:49:10.605Z,6.81
2022-12-27T21:51:38.435Z,6.84
2022-12-27T21:54:05.877Z,6.95
2022-12-27T21:56:33.117Z,6.88
2022-12-27T21:59:00.577Z,6.86
2022-12-27T22:01:50.316Z,6.94
2022-12-27T22:04:18.796Z,6.94
2022-12-27T22:06:47.511Z,7.08
2022-12-27T22:09:15.120Z,7.08
2022-12-27T22:11:42.205Z,7.09
2022-12-27T22:14:09.229Z,7.06
2022-12-27T22:16:39.095Z,7.12
2022-12-27T22:19:08.775Z,7.05
2022-12-27T22:21:36.882Z,7.09
2022-12-27T22:24:04.259Z,6.99
2022-12-27T22:26:39.250Z,6.94
2022-12-27T22:29:06.612Z,6.98
2022-12-27T22:31:36.754Z,6.95
2022-12-27T22:34:05.232Z,6.97
2022-12-27T22:36:32.393Z,7.06
2022-12-27T22:39:00.556Z,7.03
2022-12-27T22:41:29.785Z,6.92
2022-12-27T22:43:59.848Z,6.97
2022-12-27T22:46:28.517Z,6.98
2022-12-27T22:48:57.884Z,7.16
2022-12-27T22:51:27.592Z,7.19
2022-12-27T22:53:56.721Z,7.12
2022-12-27T22:56:26.434Z,7.32
2022-12-27T22:58:53.685Z,7.37
2022-12-27T23:01:27.976Z,7.36
2022-12-27T23:03:56.277Z,7.41
2022-12-27T23:06:23.821Z,7.43
2022-12-27T23:08:51.152Z,7.43
2022-12-27T23:11:23.518Z,7.42
2022-12-27T23:13:59.683Z,7.38
2022-12-27T23:16:27.101Z,7.38
2022-12-27T23:18:54.471Z,7.31
2022-12-27T23:21:24.479Z,7.46
2022-12-27T23:23:52.388Z,7.37
2022-12-27T23:26:22.233Z,7.37
2022-12-27T23:28:51.097Z,7.42
2022-12-27T23:31:20.216Z,7.52
2022-12-27T23:33:47.884Z,7.45
2022-12-27T23:36:15.771Z,7.48
2022-12-27T23:38:43.705Z,7.39
2022-12-27T23:41:23.463Z,7.44
2022-12-27T23:43:53.171Z,7.42
2022-12-27T23:46:29.908Z,7.40
2022-12-27T23:48:58.820Z,7.44
2022-12-27T23:51:26.166Z,7.58
2022-12-27T23:53:53.306Z,7.57
2022-12-27T23:56:23.571Z,7.42
2022-12-27T23:58:52.357Z,7.41
